Time;durP1;ratioP1;P1;durP2;ratioP2;P2;SDS_P1;SDS_P2;PMS_P1;PMS_P2;Temp;Humidity;BMP_temperature;BMP_pressure;BME280_temperature;BME280_humidity;BME280_pressure;Samples;Min_cycle;Max_cycle;Signal;HPM_P1;HPM_P2
2021/05/16 00:01:25;;;;;;;3.25;1.10;;;9.60;99.90;;;;;;5061838;28;20033;-81
2021/05/16 00:03:51;;;;;;;3.28;0.80;;;9.60;99.90;;;;;;5043876;28;20049;-81
2021/05/16 00:06:17;;;;;;;3.25;0.70;;;9.60;99.90;;;;;;5041449;28;20025;-80
2021/05/16 00:08:44;;;;;;;2.60;0.80;;;9.60;99.90;;;;;;5051998;28;20156;-81
2021/05/16 00:11:10;;;;;;;6.18;1.33;;;9.70;99.90;;;;;;5059354;28;20021;-80
2021/05/16 00:13:36;;;;;;;3.75;1.15;;;9.70;99.90;;;;;;5056326;28;20029;-79
2021/05/16 00:16:02;;;;;;;4.05;1.10;;;9.70;99.90;;;;;;5060804;28;20460;-79
2021/05/16 00:18:27;;;;;;;2.22;1.00;;;9.70;99.90;;;;;;5058227;28;20025;-79
2021/05/16 00:20:53;;;;;;;2.20;1.10;;;9.70;99.90;;;;;;5059751;28;20103;-79
2021/05/16 00:23:19;;;;;;;2.70;1.27;;;9.70;99.90;;;;;;5057417;28;20025;-78
2021/05/16 00:25:45;;;;;;;3.17;1.10;;;9.80;99.90;;;;;;5057169;28;20067;-80
2021/05/16 00:28:11;;;;;;;1.38;0.80;;;9.80;99.90;;;;;;5067937;28;20021;-79
2021/05/16 00:30:37;;;;;;;3.67;1.00;;;9.80;99.90;;;;;;5068495;28;20028;-80
2021/05/16 00:33:03;;;;;;;4.30;0.90;;;10.00;99.90;;;;;;5059116;28;20029;-80
2021/05/16 00:35:31;;;;;;;2.65;1.20;;;10.00;99.90;;;;;;5059157;28;20052;-79
2021/05/16 00:37:59;;;;;;;3.63;1.05;;;9.90;99.90;;;;;;5052935;28;20039;-79
2021/05/16 00:40:25;;;;;;;3.50;1.25;;;10.00;99.90;;;;;;5053956;28;20061;-79
2021/05/16 00:42:52;;;;;;;2.55;0.90;;;10.00;99.90;;;;;;5037393;28;20053;-79
2021/05/16 00:45:22;;;;;;;3.40;1.20;;;9.90;99.90;;;;;;5037633;28;20022;-79
2021/05/16 00:47:57;;;;;;;5.60;1.25;;;10.00;99.90;;;;;;5038482;28;20053;-79
2021/05/16 00:50:26;;;;;;;6.35;1.10;;;9.90;99.90;;;;;;5038648;28;20049;-78
2021/05/16 00:52:52;;;;;;;2.17;1.10;;;10.00;99.90;;;;;;5038185;28;20034;-79
2021/05/16 00:55:19;;;;;;;5.05;1.20;;;10.10;99.90;;;;;;5039340;28;20033;-79
2021/05/16 00:57:46;;;;;;;4.10;1.10;;;10.10;99.90;;;;;;5037448;28;20404;-79
2021/05/16 01:00:15;;;;;;;6.22;1.50;;;10.20;99.90;;;;;;5054071;28;20064;-78
2021/05/16 01:02:41;;;;;;;2.03;0.93;;;10.10;99.90;;;;;;5050246;28;20040;-79
2021/05/16 01:05:09;;;;;;;5.75;1.25;;;10.00;99.90;;;;;;5054774;28;20044;-78
2021/05/16 01:07:36;;;;;;;2.50;1.50;;;10.10;99.90;;;;;;5055329;28;20033;-79
2021/05/16 01:10:05;;;;;;;3.97;0.90;;;10.10;99.90;;;;;;5053190;28;20052;-79
2021/05/16 01:12:38;;;;;;;4.90;1.02;;;10.10;99.90;;;;;;5051079;28;20648;-79
2021/05/16 01:15:05;;;;;;;3.35;1.00;;;10.20;99.90;;;;;;5041788;28;20030;-80
2021/05/16 01:17:31;;;;;;;5.18;1.10;;;10.10;99.90;;;;;;5041540;28;20050;-80
2021/05/16 01:19:57;;;;;;;4.03;1.30;;;10.10;99.90;;;;;;5047708;28;20017;-79
2021/05/16 01:22:22;;;;;;;3.97;1.20;;;10.20;99.90;;;;;;5036942;28;20223;-79
2021/05/16 01:24:49;;;;;;;4.30;0.90;;;10.10;99.90;;;;;;5033831;28;20028;-79
2021/05/16 01:27:16;;;;;;;2.80;0.90;;;10.20;99.90;;;;;;5050264;28;20028;-80
2021/05/16 01:29:43;;;;;;;4.20;0.98;;;10.20;99.90;;;;;;5041000;28;20028;-79
2021/05/16 01:32:11;;;;;;;3.92;1.52;;;10.30;99.90;;;;;;5053667;28;20056;-79
2021/05/16 01:34:41;;;;;;;5.35;0.95;;;10.20;99.90;;;;;;5053282;28;20089;-79
2021/05/16 01:37:10;;;;;;;4.63;1.08;;;10.20;99.90;;;;;;5054122;28;20009;-79
2021/05/16 01:42:12;;;;;;;2.83;1.00;;;10.20;99.90;;;;;;5055447;28;20052;-72
2021/05/16 01:44:38;;;;;;;3.80;1.65;;;10.20;99.90;;;;;;5067462;28;20497;-71
2021/05/16 01:47:04;;;;;;;3.35;1.13;;;10.20;99.90;;;;;;5072223;28;20020;-72
2021/05/16 01:49:47;;;;;;;5.10;1.10;;;10.30;99.90;;;;;;5072221;28;20047;-72
2021/05/16 01:52:13;;;;;;;4.18;1.00;;;10.30;99.90;;;;;;5071872;28;20486;-71
2021/05/16 01:54:39;;;;;;;4.20;0.90;;;10.40;99.90;;;;;;5070388;28;20031;-72
2021/05/16 01:57:07;;;;;;;2.03;0.90;;;10.30;99.90;;;;;;5071618;28;20024;-72
2021/05/16 01:59:34;;;;;;;2.85;1.08;;;10.30;99.90;;;;;;5087915;28;20024;-72
2021/05/16 02:02:01;;;;;;;6.80;1.45;;;10.30;99.90;;;;;;5080807;28;20038;-72
2021/05/16 02:04:27;;;;;;;3.53;1.10;;;10.30;99.90;;;;;;5070955;28;20032;-72
2021/05/16 02:06:58;;;;;;;4.55;1.05;;;10.40;99.90;;;;;;5071926;28;20103;-72
2021/05/16 02:09:26;;;;;;;3.03;1.15;;;10.50;99.90;;;;;;5071970;28;20096;-73
2021/05/16 02:11:52;;;;;;;4.47;1.13;;;10.60;99.90;;;;;;5053520;28;20017;-72
2021/05/16 02:14:29;;;;;;;2.58;0.80;;;10.60;99.90;;;;;;5050769;28;20537;-72
2021/05/16 02:16:56;;;;;;;1.90;1.02;;;10.50;99.90;;;;;;5051376;28;20047;-72
2021/05/16 02:19:22;;;;;;;3.58;1.27;;;10.40;99.90;;;;;;5051559;28;20032;-72
2021/05/16 02:21:49;;;;;;;2.38;1.02;;;10.40;99.90;;;;;;5052255;28;20021;-72
2021/05/16 02:24:15;;;;;;;4.63;1.00;;;10.30;99.90;;;;;;5049508;28;20021;-71
2021/05/16 02:26:41;;;;;;;2.97;0.88;;;10.30;99.90;;;;;;5051675;28;20032;-72
2021/05/16 02:29:07;;;;;;;4.90;1.08;;;10.30;99.90;;;;;;5051417;28;20094;-71
2021/05/16 02:31:33;;;;;;;3.88;1.02;;;10.40;99.90;;;;;;5051532;28;20467;-72
2021/05/16 02:34:00;;;;;;;2.85;1.10;;;10.30;99.90;;;;;;5050841;28;20030;-71
2021/05/16 02:36:26;;;;;;;3.75;1.20;;;10.30;99.90;;;;;;5051453;28;20390;-73
2021/05/16 02:38:52;;;;;;;3.95;1.08;;;10.20;99.90;;;;;;5050088;28;20506;-72
2021/05/16 02:41:17;;;;;;;5.78;1.05;;;10.20;99.90;;;;;;5054225;28;20036;-73
2021/05/16 02:43:43;;;;;;;3.05;1.25;;;10.10;99.90;;;;;;5050337;28;20021;-71
2021/05/16 02:46:10;;;;;;;3.92;1.20;;;10.00;99.90;;;;;;5050975;28;20025;-72
2021/05/16 02:48:36;;;;;;;4.68;1.25;;;10.10;99.90;;;;;;5051184;28;20060;-72
2021/05/16 02:51:01;;;;;;;3.65;1.58;;;10.10;99.90;;;;;;5050881;28;20427;-73
2021/05/16 02:53:27;;;;;;;2.60;1.02;;;10.10;99.90;;;;;;5050300;28;20033;-73
2021/05/16 02:55:53;;;;;;;1.80;0.90;;;10.10;99.90;;;;;;5050714;28;20025;-72
2021/05/16 02:58:19;;;;;;;2.38;0.80;;;10.20;99.90;;;;;;5050983;28;20025;-72
2021/05/16 03:00:44;;;;;;;3.17;0.90;;;10.20;99.90;;;;;;5051013;28;20025;-72
2021/05/16 03:03:10;;;;;;;2.40;1.02;;;10.20;99.90;;;;;;5050001;28;20029;-72
2021/05/16 03:05:36;;;;;;;4.88;1.10;;;10.20;99.90;;;;;;5049630;28;20052;-72
2021/05/16 03:08:02;;;;;;;7.85;0.80;;;10.30;99.90;;;;;;5053080;28;20017;-72
2021/05/16 03:10:28;;;;;;;6.18;0.95;;;10.40;99.90;;;;;;5053133;28;20020;-72
2021/05/16 03:12:54;;;;;;;1.55;0.90;;;10.40;99.90;;;;;;5053724;28;20025;-72
2021/05/16 03:15:20;;;;;;;3.45;1.00;;;10.40;99.90;;;;;;5054538;28;20075;-71
2021/05/16 03:17:45;;;;;;;2.05;0.70;;;10.50;99.90;;;;;;5054621;28;20390;-72
2021/05/16 03:20:12;;;;;;;1.70;1.00;;;10.30;99.90;;;;;;5054283;28;20035;-71
2021/05/16 03:22:38;;;;;;;2.15;0.80;;;10.20;99.90;;;;;;5053898;28;20043;-71
2021/05/16 03:25:06;;;;;;;1.48;0.75;;;10.20;99.90;;;;;;5052646;28;20494;-72
2021/05/16 03:27:31;;;;;;;6.75;1.15;;;10.30;99.90;;;;;;5054064;28;20021;-72
2021/05/16 03:29:57;;;;;;;1.80;0.82;;;10.20;99.90;;;;;;5052881;28;20033;-73
2021/05/16 03:32:23;;;;;;;2.33;0.88;;;10.30;99.90;;;;;;5054367;28;20025;-73
2021/05/16 03:34:49;;;;;;;3.28;0.80;;;10.10;99.90;;;;;;5053443;28;20021;-73
2021/05/16 03:37:14;;;;;;;2.97;0.80;;;10.10;99.90;;;;;;5054213;28;20482;-72
2021/05/16 03:39:40;;;;;;;2.42;0.60;;;10.00;99.90;;;;;;5053963;28;20108;-72
2021/05/16 03:42:07;;;;;;;4.63;1.10;;;10.00;99.90;;;;;;5053468;28;20032;-72
2021/05/16 03:44:33;;;;;;;1.88;0.70;;;10.10;99.90;;;;;;5053551;28;20079;-71
2021/05/16 03:46:59;;;;;;;2.72;1.08;;;10.20;99.90;;;;;;5054069;28;20025;-72
2021/05/16 03:49:24;;;;;;;2.03;0.60;;;10.10;99.90;;;;;;5053896;28;20096;-71
2021/05/16 03:51:50;;;;;;;1.42;0.60;;;10.10;99.90;;;;;;5053716;28;20483;-72
2021/05/16 03:54:16;;;;;;;1.15;0.70;;;10.20;99.90;;;;;;5053181;28;20435;-70
2021/05/16 03:56:42;;;;;;;1.02;0.60;;;10.20;99.90;;;;;;5053508;28;20136;-72
2021/05/16 03:59:08;;;;;;;1.83;0.70;;;10.20;99.90;;;;;;5053916;28;20021;-72
2021/05/16 04:01:34;;;;;;;1.10;0.60;;;10.30;99.90;;;;;;5053495;28;20028;-70
2021/05/16 04:03:59;;;;;;;3.40;0.90;;;10.30;99.90;;;;;;5053098;28;20656;-71
2021/05/16 04:06:25;;;;;;;1.35;0.57;;;10.40;99.90;;;;;;5053698;28;20021;-72
2021/05/16 04:08:51;;;;;;;2.63;0.90;;;10.30;99.90;;;;;;5053879;28;20013;-71
2021/05/16 04:11:16;;;;;;;0.50;0.40;;;10.30;99.90;;;;;;5053069;28;20029;-72
2021/05/16 04:13:42;;;;;;;1.48;0.63;;;10.30;99.90;;;;;;5052646;28;20059;-72
2021/05/16 04:16:08;;;;;;;1.17;0.57;;;10.30;99.90;;;;;;5053294;28;20021;-72
2021/05/16 04:18:34;;;;;;;1.85;0.73;;;10.40;99.90;;;;;;5052533;28;20017;-72
2021/05/16 04:21:01;;;;;;;1.73;0.60;;;10.30;99.90;;;;;;5053091;28;20105;-72
2021/05/16 04:23:27;;;;;;;1.95;0.60;;;10.40;99.90;;;;;;5052670;28;20036;-72
2021/05/16 04:25:53;;;;;;;4.45;0.73;;;10.40;99.90;;;;;;5052678;28;20025;-72
2021/05/16 04:28:18;;;;;;;1.02;0.60;;;10.40;99.90;;;;;;5053154;28;20433;-73
2021/05/16 04:30:44;;;;;;;1.77;0.63;;;10.50;99.90;;;;;;5051962;28;20090;-72
2021/05/16 04:33:10;;;;;;;0.70;0.50;;;10.40;99.90;;;;;;5052647;28;20475;-72
2021/05/16 04:35:36;;;;;;;1.95;0.57;;;10.30;99.90;;;;;;5053774;28;20099;-71
2021/05/16 04:38:01;;;;;;;1.30;0.55;;;10.40;99.90;;;;;;5052269;28;20024;-72
2021/05/16 04:40:27;;;;;;;2.10;0.73;;;10.50;99.90;;;;;;5043908;28;20124;-71
2021/05/16 04:42:53;;;;;;;0.63;0.60;;;10.50;99.90;;;;;;5053344;28;20467;-72
2021/05/16 04:45:19;;;;;;;3.03;0.98;;;10.60;99.90;;;;;;5055506;28;20028;-72
2021/05/16 04:47:45;;;;;;;2.88;1.13;;;10.70;99.90;;;;;;5053316;28;20021;-71
2021/05/16 04:50:13;;;;;;;3.72;0.70;;;10.60;99.90;;;;;;5052881;28;20033;-71
2021/05/16 04:52:39;;;;;;;0.60;0.52;;;10.70;99.90;;;;;;5052242;28;20614;-74
2021/05/16 04:55:05;;;;;;;3.47;0.52;;;10.50;99.90;;;;;;5051365;28;20119;-73
2021/05/16 04:57:31;;;;;;;2.35;0.52;;;10.40;99.90;;;;;;5052971;28;20033;-71
2021/05/16 04:59:57;;;;;;;3.90;0.52;;;10.50;99.90;;;;;;5052605;28;20033;-71
2021/05/16 05:02:23;;;;;;;2.03;0.60;;;10.60;99.90;;;;;;5052469;28;20021;-72
2021/05/16 05:04:48;;;;;;;1.75;0.70;;;10.50;99.90;;;;;;5051754;28;20398;-73
2021/05/16 05:07:15;;;;;;;0.90;0.65;;;10.40;99.90;;;;;;5052619;28;20096;-71
2021/05/16 05:09:41;;;;;;;2.60;0.63;;;10.40;99.90;;;;;;5052381;28;20032;-72
2021/05/16 05:12:07;;;;;;;2.05;0.98;;;10.20;99.90;;;;;;5051964;28;20021;-73
2021/05/16 05:14:32;;;;;;;1.92;0.70;;;10.40;99.90;;;;;;5051733;28;20029;-72
2021/05/16 05:16:58;;;;;;;1.88;0.82;;;10.50;99.90;;;;;;5052227;28;20391;-73
2021/05/16 05:19:25;;;;;;;3.13;0.50;;;10.50;99.90;;;;;;5052164;28;20032;-72
2021/05/16 05:21:50;;;;;;;2.47;0.40;;;10.70;99.90;;;;;;5052092;28;20052;-73
2021/05/16 05:24:16;;;;;;;2.83;0.80;;;10.80;99.90;;;;;;5051267;28;20064;-74
2021/05/16 05:26:41;;;;;;;2.45;0.50;;;10.70;99.90;;;;;;5051731;28;20021;-73
2021/05/16 05:29:07;;;;;;;2.75;0.60;;;10.80;99.90;;;;;;5046137;28;20068;-74
2021/05/16 05:31:33;;;;;;;2.05;0.50;;;10.70;99.90;;;;;;5052235;28;20746;-73
2021/05/16 05:33:58;;;;;;;1.48;0.40;;;10.90;99.90;;;;;;5048872;28;20033;-71
2021/05/16 05:36:24;;;;;;;1.95;0.40;;;10.80;99.90;;;;;;5040589;28;20120;-72
2021/05/16 05:38:50;;;;;;;2.28;0.50;;;11.00;99.90;;;;;;5041065;28;20039;-73
2021/05/16 05:41:15;;;;;;;2.38;0.80;;;11.00;99.90;;;;;;5039690;28;20032;-73
2021/05/16 05:43:41;;;;;;;1.33;0.60;;;11.20;99.90;;;;;;5038359;28;20479;-71
2021/05/16 05:46:07;;;;;;;0.77;0.40;;;11.20;99.90;;;;;;5040423;28;20402;-72
2021/05/16 05:48:32;;;;;;;2.53;0.50;;;11.00;99.90;;;;;;5039057;28;20059;-71
2021/05/16 05:50:58;;;;;;;2.03;0.90;;;11.10;99.90;;;;;;5036921;28;20048;-71
2021/05/16 05:53:24;;;;;;;2.17;0.50;;;11.30;99.90;;;;;;5039401;28;20809;-71
2021/05/16 05:55:50;;;;;;;2.53;0.70;;;11.20;99.90;;;;;;5040791;28;20025;-71
2021/05/16 05:58:16;;;;;;;1.67;0.70;;;11.20;99.90;;;;;;5043362;28;20454;-72
2021/05/16 06:00:42;;;;;;;1.88;0.50;;;11.40;99.90;;;;;;5040440;28;20021;-71
2021/05/16 06:03:07;;;;;;;1.40;0.50;;;11.60;99.90;;;;;;5038803;28;20025;-72
2021/05/16 06:05:33;;;;;;;1.67;0.55;;;11.60;99.90;;;;;;5040284;28;20100;-73
2021/05/16 06:07:59;;;;;;;0.43;0.35;;;11.60;99.90;;;;;;5041068;28;20587;-69
2021/05/16 06:10:25;;;;;;;0.40;0.40;;;11.70;99.90;;;;;;5039768;28;20025;-72
2021/05/16 06:12:52;;;;;;;0.70;0.40;;;11.70;99.90;;;;;;5037051;28;20029;-71
2021/05/16 06:15:19;;;;;;;1.88;0.65;;;11.70;99.90;;;;;;5038707;28;20480;-72
2021/05/16 06:17:45;;;;;;;1.60;0.50;;;11.60;99.90;;;;;;5039829;28;20068;-71
2021/05/16 06:20:11;;;;;;;1.08;0.40;;;11.60;99.90;;;;;;5039692;28;20475;-73
2021/05/16 06:22:37;;;;;;;0.85;0.45;;;11.50;99.90;;;;;;5036933;28;20760;-73
2021/05/16 06:25:04;;;;;;;0.32;0.32;;;11.50;99.90;;;;;;5036970;28;20125;-70
2021/05/16 06:27:29;;;;;;;2.83;0.40;;;11.70;99.90;;;;;;5039027;28;20407;-72
2021/05/16 06:29:55;;;;;;;0.90;0.40;;;11.90;99.90;;;;;;5038607;28;20026;-71
2021/05/16 06:32:21;;;;;;;4.60;1.10;;;12.10;99.90;;;;;;5038592;28;20108;-72
2021/05/16 06:34:47;;;;;;;1.92;0.80;;;12.00;99.90;;;;;;5038456;28;20055;-71
2021/05/16 06:37:12;;;;;;;0.70;0.63;;;11.80;99.90;;;;;;5040838;28;20541;-75
2021/05/16 06:39:38;;;;;;;1.58;1.00;;;11.80;99.90;;;;;;5040436;28;20025;-68
2021/05/16 06:42:04;;;;;;;1.80;0.75;;;12.10;99.90;;;;;;5038425;28;20072;-71
2021/05/16 06:44:30;;;;;;;1.35;0.40;;;12.00;99.90;;;;;;5042719;28;20112;-72
2021/05/16 06:46:55;;;;;;;3.13;0.50;;;12.20;99.90;;;;;;5042322;28;20113;-71
2021/05/16 06:49:21;;;;;;;0.90;0.40;;;12.40;99.90;;;;;;5041940;28;20022;-71
2021/05/16 06:51:47;;;;;;;0.95;0.52;;;12.50;99.90;;;;;;5041028;28;20045;-72
2021/05/16 06:54:13;;;;;;;3.83;1.20;;;12.80;99.90;;;;;;5040943;28;20034;-73
2021/05/16 06:56:39;;;;;;;0.88;0.40;;;12.90;99.90;;;;;;5040463;28;20052;-73
2021/05/16 06:59:05;;;;;;;0.60;0.40;;;12.80;99.90;;;;;;5041625;28;20626;-71
2021/05/16 07:01:31;;;;;;;2.65;0.55;;;12.80;99.90;;;;;;5041159;28;20508;-73
2021/05/16 07:03:57;;;;;;;0.75;0.40;;;13.00;99.90;;;;;;5041489;28;20606;-75
2021/05/16 07:06:22;;;;;;;2.08;0.70;;;13.50;99.90;;;;;;5042489;28;20104;-75
2021/05/16 07:08:49;;;;;;;1.40;0.50;;;13.60;99.90;;;;;;5040680;28;20502;-75
2021/05/16 07:11:15;;;;;;;2.35;0.70;;;14.00;99.90;;;;;;5041317;28;20041;-82
2021/05/16 07:13:41;;;;;;;3.20;0.70;;;14.30;99.90;;;;;;5041604;28;20021;-75
2021/05/16 07:16:07;;;;;;;3.65;0.50;;;14.20;99.90;;;;;;5042887;28;20064;-71
2021/05/16 07:18:37;;;;;;;2.05;0.45;;;13.40;99.90;;;;;;5042477;28;20067;-71
2021/05/16 07:21:04;;;;;;;0.85;0.40;;;13.10;99.90;;;;;;5042211;28;20059;-71
2021/05/16 07:23:30;;;;;;;1.92;1.08;;;13.20;99.90;;;;;;5049792;28;20044;-71
2021/05/16 07:25:58;;;;;;;4.15;0.80;;;13.10;99.90;;;;;;5048080;28;20021;-71
2021/05/16 07:28:24;;;;;;;3.65;1.00;;;13.30;99.90;;;;;;5044960;28;20022;-70
2021/05/16 07:30:50;;;;;;;3.60;0.95;;;13.10;99.90;;;;;;5044593;28;20056;-72
2021/05/16 07:33:15;;;;;;;6.80;0.93;;;13.00;99.90;;;;;;5043245;28;20069;-70
2021/05/16 07:35:41;;;;;;;3.70;1.10;;;12.90;99.90;;;;;;5043520;28;20033;-71
2021/05/16 07:38:07;;;;;;;2.65;0.60;;;12.70;99.90;;;;;;5044144;28;20034;-70
2021/05/16 07:40:33;;;;;;;1.95;0.52;;;13.00;99.90;;;;;;5044598;28;20052;-71
2021/05/16 07:42:58;;;;;;;5.10;1.05;;;13.30;99.90;;;;;;5042559;28;20373;-71
2021/05/16 07:45:24;;;;;;;4.95;1.00;;;13.80;99.90;;;;;;5043654;28;20681;-72
2021/05/16 07:47:50;;;;;;;2.00;0.90;;;13.50;99.90;;;;;;5042835;28;20703;-71
2021/05/16 07:50:16;;;;;;;4.28;0.98;;;13.80;99.90;;;;;;5041686;28;20029;-71
2021/05/16 07:52:42;;;;;;;4.10;0.95;;;14.30;99.90;;;;;;5041687;28;20033;-73
2021/05/16 07:55:09;;;;;;;3.63;1.15;;;14.90;99.90;;;;;;5041104;28;20550;-72
2021/05/16 07:57:35;;;;;;;7.00;1.30;;;14.40;99.90;;;;;;5041907;28;20518;-72
2021/05/16 08:00:01;;;;;;;7.95;1.27;;;14.30;99.90;;;;;;5044978;28;20056;-72
2021/05/16 08:02:27;;;;;;;3.58;1.00;;;13.90;99.90;;;;;;5039232;28;20040;-72
2021/05/16 08:04:52;;;;;;;4.38;1.20;;;13.50;99.90;;;;;;5042714;28;20033;-73
2021/05/16 08:07:18;;;;;;;7.95;1.48;;;13.30;99.90;;;;;;5039220;28;20026;-73
2021/05/16 08:09:44;;;;;;;4.10;1.10;;;13.30;99.90;;;;;;5043415;28;20105;-72
2021/05/16 08:12:10;;;;;;;5.22;1.08;;;13.30;99.90;;;;;;5040513;28;20041;-72
2021/05/16 08:14:36;;;;;;;4.80;0.82;;;13.20;99.90;;;;;;5039688;28;20033;-70
2021/05/16 08:17:03;;;;;;;3.15;0.85;;;13.10;99.90;;;;;;5041315;28;20477;-73
2021/05/16 08:19:29;;;;;;;3.85;0.90;;;13.50;99.90;;;;;;5042086;28;20665;-71
2021/05/16 08:21:55;;;;;;;4.25;1.00;;;13.90;99.90;;;;;;5043684;28;20033;-72
2021/05/16 08:24:21;;;;;;;5.10;1.02;;;14.40;99.90;;;;;;5040078;28;20020;-71
2021/05/16 08:26:46;;;;;;;5.93;1.20;;;15.00;99.90;;;;;;5041809;28;20048;-72
2021/05/16 08:29:12;;;;;;;3.90;0.95;;;15.10;99.90;;;;;;5041090;28;20021;-74
2021/05/16 08:31:38;;;;;;;3.40;0.90;;;15.00;99.90;;;;;;5040294;28;20100;-73
2021/05/16 08:34:07;;;;;;;4.78;0.90;;;15.20;99.90;;;;;;5040230;28;20029;-74
2021/05/16 08:36:35;;;;;;;3.05;1.20;;;15.00;99.90;;;;;;5042082;28;20037;-73
2021/05/16 08:39:03;;;;;;;7.18;1.60;;;15.70;99.90;;;;;;5041533;28;20026;-73
2021/05/16 08:41:29;;;;;;;8.27;1.58;;;15.80;99.90;;;;;;5040468;28;20124;-74
2021/05/16 08:43:54;;;;;;;3.47;1.10;;;16.70;99.90;;;;;;5042293;28;20124;-76
2021/05/16 08:46:21;;;;;;;7.63;1.33;;;17.20;99.90;;;;;;5043613;28;20071;-77
2021/05/16 08:48:47;;;;;;;6.25;1.77;;;17.20;99.90;;;;;;5047739;28;20093;-76
2021/05/16 08:51:15;;;;;;;4.03;1.15;;;17.10;99.90;;;;;;5043781;28;20060;-73
2021/05/16 08:53:41;;;;;;;7.22;1.55;;;17.10;99.90;;;;;;5041157;28;20048;-73
2021/05/16 08:56:07;;;;;;;3.55;1.17;;;17.60;99.90;;;;;;5040274;28;20032;-73
2021/05/16 08:58:34;;;;;;;6.13;1.40;;;17.40;99.90;;;;;;5040938;28;20021;-74
2021/05/16 09:00:59;;;;;;;9.88;1.48;;;17.60;99.90;;;;;;5040159;28;20037;-73
2021/05/16 09:03:26;;;;;;;6.40;1.65;;;17.60;99.90;;;;;;5040365;28;20052;-73
2021/05/16 09:05:53;;;;;;;3.25;1.05;;;17.80;99.90;;;;;;5039844;28;20029;-72
2021/05/16 09:08:24;;;;;;;6.00;1.48;;;17.80;99.90;;;;;;5040559;28;20112;-73
2021/05/16 09:11:01;;;;;;;3.72;1.15;;;17.50;99.90;;;;;;5041112;28;20044;-73
2021/05/16 09:13:31;;;;;;;6.35;1.23;;;16.80;99.90;;;;;;5040698;28;20490;-74
2021/05/16 09:16:02;;;;;;;5.10;1.50;;;16.70;99.90;;;;;;5039649;28;20128;-72
2021/05/16 09:18:35;;;;;;;8.03;1.07;;;17.00;99.90;;;;;;5040270;28;20032;-73
2021/05/16 09:21:24;;;;;;;5.20;1.50;;;17.70;99.90;;;;;;5040332;28;20101;-74
2021/05/16 09:24:05;;;;;;;6.43;1.50;;;18.10;98.70;;;;;;5039735;28;20452;-73
2021/05/16 09:26:37;;;;;;;5.13;1.40;;;18.50;97.20;;;;;;5038516;28;20063;-72
2021/05/16 09:29:18;;;;;;;3.28;1.98;;;18.30;99.10;;;;;;5036948;28;20032;-70
2021/05/16 09:31:43;;;;;;;6.90;1.02;;;19.00;98.00;;;;;;5030744;28;20175;-72
2021/05/16 09:34:11;;;;;;;3.75;1.40;;;19.20;95.70;;;;;;5031314;28;20556;-71
2021/05/16 09:36:38;;;;;;;5.75;1.50;;;18.90;97.70;;;;;;5031901;28;20026;-72
2021/05/16 09:39:24;;;;;;;5.25;1.08;;;19.80;94.70;;;;;;5056795;23;20098;-70
2021/05/16 09:42:18;;;;;;;6.65;1.30;;;20.90;92.50;;;;;;5041511;28;20111;-71
2021/05/16 09:44:49;;;;;;;4.68;1.13;;;20.80;90.10;;;;;;5046072;28;20057;-71
2021/05/16 09:47:26;;;;;;;5.25;0.98;;;20.50;91.20;;;;;;5014548;28;20512;-71
2021/05/16 09:50:02;;;;;;;3.17;1.17;;;20.30;88.50;;;;;;5011799;28;20038;-71
2021/05/16 09:52:34;;;;;;;4.00;1.13;;;19.10;90.90;;;;;;5011762;28;20057;-72
2021/05/16 09:55:01;;;;;;;4.85;1.30;;;18.90;90.80;;;;;;5010775;28;20104;-71
2021/05/16 09:57:36;;;;;;;4.32;0.88;;;18.50;91.60;;;;;;5012229;28;20032;-73
2021/05/16 10:00:08;;;;;;;3.35;1.05;;;18.70;91.10;;;;;;5014899;28;20033;-73
2021/05/16 10:02:34;;;;;;;3.88;1.30;;;19.50;91.20;;;;;;5017489;28;20491;-73
2021/05/16 10:05:03;;;;;;;4.30;1.23;;;18.20;91.50;;;;;;5015980;28;20038;-72
2021/05/16 10:07:30;;;;;;;2.05;0.98;;;18.40;92.50;;;;;;5017896;28;20029;-72
2021/05/16 10:09:57;;;;;;;4.43;1.33;;;17.80;92.50;;;;;;5031179;28;20025;-70
2021/05/16 10:12:23;;;;;;;5.78;1.30;;;19.10;93.10;;;;;;5032301;28;20028;-73
2021/05/16 10:14:55;;;;;;;5.68;1.42;;;18.50;92.40;;;;;;5030570;28;20096;-71
2021/05/16 10:17:22;;;;;;;4.57;1.27;;;19.10;91.30;;;;;;5030796;28;20448;-71
2021/05/16 10:19:49;;;;;;;3.15;1.02;;;18.90;92.60;;;;;;5031426;28;20045;-72
2021/05/16 10:22:17;;;;;;;2.35;0.77;;;19.70;90.60;;;;;;5030787;28;20028;-73
2021/05/16 10:24:50;;;;;;;5.88;1.50;;;19.50;88.20;;;;;;5030036;28;20021;-73
2021/05/16 10:27:43;;;;;;;5.65;1.25;;;19.70;87.50;;;;;;5024106;28;20022;-70
2021/05/16 10:30:09;;;;;;;;;;;19.80;89.50;;;;;;5012625;28;20033;-71
2021/05/16 10:32:55;;;;;;;5.78;1.38;;;19.70;87.90;;;;;;5020995;28;20383;-73
2021/05/16 10:35:21;;;;;;;4.28;1.23;;;19.20;88.90;;;;;;5019764;28;20048;-74
2021/05/16 10:37:53;;;;;;;4.35;1.17;;;18.60;89.60;;;;;;5020395;28;20028;-73
2021/05/16 10:40:25;;;;;;;2.53;0.73;;;18.30;90.30;;;;;;5020377;28;20044;-72
2021/05/16 10:43:22;;;;;;;3.30;0.77;;;19.20;87.80;;;;;;5020378;28;20076;-71
2021/05/16 10:45:47;;;;;;;2.15;0.70;;;18.70;85.00;;;;;;5020985;28;20029;-70
2021/05/16 10:48:18;;;;;;;4.10;1.20;;;19.60;86.70;;;;;;5020584;28;20535;-71
2021/05/16 10:50:50;;;;;;;4.28;1.70;;;20.70;83.00;;;;;;5020006;28;20018;-70
2021/05/16 10:53:17;;;;;;;2.53;0.82;;;20.20;80.20;;;;;;5020929;28;20034;-71
2021/05/16 10:55:46;;;;;;;4.57;0.80;;;19.60;81.90;;;;;;5020430;28;20395;-73
2021/05/16 10:58:33;;;;;;;4.57;1.13;;;18.80;85.10;;;;;;5019065;28;20065;-72
2021/05/16 11:01:16;;;;;;;4.85;0.90;;;18.90;84.00;;;;;;5021675;28;20026;-72
2021/05/16 11:03:43;;;;;;;2.97;0.93;;;18.80;85.00;;;;;;5019088;28;20053;-72
2021/05/16 11:06:09;;;;;;;4.25;1.27;;;19.50;84.50;;;;;;5020032;28;20022;-72
2021/05/16 11:08:34;;;;;;;2.45;0.95;;;20.20;83.90;;;;;;5020324;28;20025;-73
2021/05/16 11:11:21;;;;;;;5.50;1.45;;;21.10;81.90;;;;;;5021126;28;20053;-73
2021/05/16 11:13:48;;;;;;;1.88;0.95;;;21.50;80.30;;;;;;5019271;28;20034;-73
2021/05/16 11:16:13;;;;;;;3.13;1.00;;;20.90;76.50;;;;;;5020314;28;20041;-72
2021/05/16 11:18:39;;;;;;;3.65;0.75;;;19.30;81.20;;;;;;5020164;28;20049;-73
2021/05/16 11:21:08;;;;;;;2.58;0.90;;;19.50;83.40;;;;;;5020423;28;20018;-73
2021/05/16 11:23:39;;;;;;;2.97;0.85;;;19.40;82.10;;;;;;5020945;28;20025;-73
2021/05/16 11:26:10;;;;;;;2.10;0.70;;;19.40;81.30;;;;;;5021288;28;20026;-72
2021/05/16 11:28:52;;;;;;;1.58;0.65;;;19.20;94.00;;;;;;5023115;28;20450;-73
2021/05/16 11:31:21;;;;;;;4.05;1.50;;;18.50;81.20;;;;;;5025337;28;20433;-73
2021/05/16 11:33:48;;;;;;;3.10;1.00;;;18.90;85.10;;;;;;5024725;28;20026;-73
2021/05/16 11:36:23;;;;;;;3.10;1.17;;;19.50;81.10;;;;;;5025034;28;20052;-72
2021/05/16 11:38:53;;;;;;;3.35;1.02;;;19.90;81.50;;;;;;5024909;28;20030;-73
2021/05/16 11:41:30;;;;;;;4.28;1.05;;;20.00;82.40;;;;;;5025004;28;20096;-72
2021/05/16 11:43:56;;;;;;;5.28;0.88;;;21.00;77.00;;;;;;5025083;28;20402;-75
2021/05/16 11:46:28;;;;;;;4.95;1.15;;;21.50;71.60;;;;;;5023413;28;20029;-73
2021/05/16 11:48:54;;;;;;;1.98;1.08;;;23.00;76.90;;;;;;5023721;28;20017;-72
2021/05/16 11:51:20;;;;;;;3.33;0.93;;;23.60;68.10;;;;;;5021815;28;20045;-71
2021/05/16 11:54:10;;;;;;;3.17;0.77;;;24.40;67.50;;;;;;5023480;28;20428;-72
2021/05/16 11:56:39;;;;;;;3.00;1.02;;;24.80;64.60;;;;;;5024733;28;20049;-74
2021/05/16 11:59:05;;;;;;;2.95;0.65;;;24.90;60.20;;;;;;5023649;28;20029;-73
2021/05/16 12:01:42;;;;;;;2.03;0.60;;;24.30;58.60;;;;;;5023716;28;20026;-72
2021/05/16 12:04:16;;;;;;;1.73;0.90;;;23.40;59.50;;;;;;5021258;28;20379;-73
2021/05/16 12:06:54;;;;;;;2.55;0.95;;;23.30;62.60;;;;;;5022714;28;20025;-73
2021/05/16 12:09:21;;;;;;;5.97;0.80;;;25.50;60.10;;;;;;5023085;28;20060;-72
2021/05/16 12:11:50;;;;;;;0.70;0.40;;;24.70;57.60;;;;;;5022916;28;20030;-75
2021/05/16 12:14:18;;;;;;;0.82;0.45;;;24.90;57.20;;;;;;5022348;28;20240;-72
2021/05/16 12:16:58;;;;;;;2.67;0.57;;;25.20;57.90;;;;;;5021217;28;20045;-72
2021/05/16 12:19:32;;;;;;;1.90;0.57;;;23.40;57.60;;;;;;5023349;28;20022;-71
2021/05/16 12:22:02;;;;;;;6.07;0.75;;;22.70;59.90;;;;;;5022412;28;20038;-71
2021/05/16 12:24:31;;;;;;;2.33;0.52;;;22.40;59.90;;;;;;5021796;28;20159;-71
2021/05/16 12:26:58;;;;;;;3.15;0.88;;;22.10;60.10;;;;;;5022113;28;20087;-72
2021/05/16 12:29:25;;;;;;;4.13;0.93;;;21.70;61.70;;;;;;5022018;28;20411;-77
2021/05/16 12:31:50;;;;;;;3.10;1.00;;;21.50;63.70;;;;;;5022367;28;20021;-76
2021/05/16 12:34:21;;;;;;;5.43;1.17;;;20.80;63.20;;;;;;5019512;28;20073;-76
2021/05/16 12:36:57;;;;;;;1.30;0.65;;;20.20;66.40;;;;;;5019366;28;20030;-76
2021/05/16 12:39:47;;;;;;;2.63;0.70;;;20.00;65.90;;;;;;5019110;28;20067;-78
2021/05/16 12:42:37;;;;;;;2.88;0.93;;;19.80;68.50;;;;;;5022325;28;20037;-79
2021/05/16 12:45:22;;;;;;;2.15;0.77;;;19.50;68.40;;;;;;5021665;28;20024;-79
2021/05/16 12:47:56;;;;;;;1.92;0.93;;;19.30;70.70;;;;;;5022796;28;20017;-77
2021/05/16 12:50:53;;;;;;;3.15;0.85;;;18.60;73.10;;;;;;5021368;28;20050;-77
2021/05/16 12:53:25;;;;;;;3.30;0.70;;;18.30;75.30;;;;;;5019857;28;20049;-77
2021/05/16 12:55:54;;;;;;;2.80;1.17;;;18.20;75.50;;;;;;5021117;28;20053;-77